sensor_id;sensor_type;location;lat;lon;timestamp;pressure;altitude;pressure_sealevel;temperature;humidity
40948;BME280;49382;-25.924;28.194;2023-03-04T00:01:54;85039.64;;;16.42;59.46
40948;BME280;49382;-25.924;28.194;2023-03-04T00:04:19;85039.02;;;16.01;59.37
40948;BME280;49382;-25.924;28.194;2023-03-04T00:06:45;85040.22;;;15.32;59.53
40948;BME280;49382;-25.924;28.194;2023-03-04T00:09:10;85040.54;;;15.44;60.75
40948;BME280;49382;-25.924;28.194;2023-03-04T00:11:36;85042.69;;;14.87;62.86
40948;BME280;49382;-25.924;28.194;2023-03-04T00:14:01;85040.41;;;14.25;63.57
40948;BME280;49382;-25.924;28.194;2023-03-04T00:16:27;85037.66;;;14.45;64.81
40948;BME280;49382;-25.924;28.194;2023-03-04T00:18:52;85037.76;;;14.58;63.86
40948;BME280;49382;-25.924;28.194;2023-03-04T00:21:17;85036.61;;;14.54;64.58
40948;BME280;49382;-25.924;28.194;2023-03-04T00:23:43;85033.39;;;15.28;63.53
40948;BME280;49382;-25.924;28.194;2023-03-04T00:26:08;85033.78;;;15.76;62.32
40948;BME280;49382;-25.924;28.194;2023-03-04T00:28:34;85034.95;;;16.00;62.49
40948;BME280;49382;-25.924;28.194;2023-03-04T00:31:00;85035.36;;;17.32;58.41
40948;BME280;49382;-25.924;28.194;2023-03-04T00:33:25;85031.80;;;17.17;56.89
40948;BME280;49382;-25.924;28.194;2023-03-04T00:35:51;85033.34;;;18.64;52.74
40948;BME280;49382;-25.924;28.194;2023-03-04T00:38:16;85035.82;;;17.40;55.32
40948;BME280;49382;-25.924;28.194;2023-03-04T00:40:42;85040.82;;;16.93;55.72
40948;BME280;49382;-25.924;28.194;2023-03-04T00:43:07;85041.91;;;15.72;59.63
40948;BME280;49382;-25.924;28.194;2023-03-04T00:45:33;85041.55;;;16.99;58.07
40948;BME280;49382;-25.924;28.194;2023-03-04T00:47:58;85043.51;;;15.58;60.81
40948;BME280;49382;-25.924;28.194;2023-03-04T00:50:24;85048.14;;;15.30;61.59
40948;BME280;49382;-25.924;28.194;2023-03-04T00:52:50;85049.02;;;15.21;61.13
40948;BME280;49382;-25.924;28.194;2023-03-04T00:55:15;85048.50;;;16.50;59.06
40948;BME280;49382;-25.924;28.194;2023-03-04T00:57:40;85052.17;;;17.38;57.47
40948;BME280;49382;-25.924;28.194;2023-03-04T01:00:07;85063.94;;;15.19;58.19
40948;BME280;49382;-25.924;28.194;2023-03-04T01:02:31;85063.11;;;16.15;59.01
40948;BME280;49382;-25.924;28.194;2023-03-04T01:04:57;85066.78;;;17.09;57.40
40948;BME280;49382;-25.924;28.194;2023-03-04T01:07:22;85069.51;;;16.96;57.42
40948;BME280;49382;-25.924;28.194;2023-03-04T01:09:48;85071.02;;;16.41;59.70
40948;BME280;49382;-25.924;28.194;2023-03-04T01:12:13;85072.86;;;17.88;56.40
40948;BME280;49382;-25.924;28.194;2023-03-04T01:14:38;85073.09;;;16.01;60.51
40948;BME280;49382;-25.924;28.194;2023-03-04T01:17:03;85072.28;;;15.75;60.70
40948;BME280;49382;-25.924;28.194;2023-03-04T01:19:28;85075.59;;;15.82;60.70
40948;BME280;49382;-25.924;28.194;2023-03-04T01:21:54;85075.85;;;15.67;60.89
40948;BME280;49382;-25.924;28.194;2023-03-04T01:24:18;85071.40;;;15.97;60.36
40948;BME280;49382;-25.924;28.194;2023-03-04T01:26:44;85067.77;;;15.88;60.31
40948;BME280;49382;-25.924;28.194;2023-03-04T01:29:10;85070.17;;;15.77;60.51
40948;BME280;49382;-25.924;28.194;2023-03-04T01:31:35;85073.30;;;14.95;62.57
40948;BME280;49382;-25.924;28.194;2023-03-04T01:34:00;85074.09;;;15.20;61.87
40948;BME280;49382;-25.924;28.194;2023-03-04T01:36:25;85080.21;;;15.78;61.49
40948;BME280;49382;-25.924;28.194;2023-03-04T01:38:50;85078.32;;;16.01;61.32
40948;BME280;49382;-25.924;28.194;2023-03-04T01:41:18;85078.56;;;15.98;60.86
40948;BME280;49382;-25.924;28.194;2023-03-04T01:43:41;85082.20;;;15.33;62.65
40948;BME280;49382;-25.924;28.194;2023-03-04T01:46:08;85078.22;;;16.65;60.22
40948;BME280;49382;-25.924;28.194;2023-03-04T01:48:34;85075.52;;;15.78;60.85
40948;BME280;49382;-25.924;28.194;2023-03-04T01:50:57;85076.14;;;15.71;61.30
40948;BME280;49382;-25.924;28.194;2023-03-04T01:53:24;85079.26;;;15.09;63.64
40948;BME280;49382;-25.924;28.194;2023-03-04T01:55:48;85077.63;;;15.68;61.58
40948;BME280;49382;-25.924;28.194;2023-03-04T01:58:14;85076.75;;;15.21;62.67
40948;BME280;49382;-25.924;28.194;2023-03-04T02:00:39;85072.02;;;14.97;63.14
40948;BME280;49382;-25.924;28.194;2023-03-04T02:03:07;85071.99;;;15.45;63.42
40948;BME280;49382;-25.924;28.194;2023-03-04T02:05:30;85068.83;;;16.50;60.92
40948;BME280;49382;-25.924;28.194;2023-03-04T02:07:57;85075.47;;;15.19;63.09
40948;BME280;49382;-25.924;28.194;2023-03-04T02:10:21;85077.50;;;15.37;62.91
40948;BME280;49382;-25.924;28.194;2023-03-04T02:12:47;85077.84;;;16.63;59.59
40948;BME280;49382;-25.924;28.194;2023-03-04T02:15:12;85085.60;;;15.43;62.85
40948;BME280;49382;-25.924;28.194;2023-03-04T02:17:37;85082.73;;;15.84;61.86
40948;BME280;49382;-25.924;28.194;2023-03-04T02:20:12;85080.15;;;16.10;61.03
40948;BME280;49382;-25.924;28.194;2023-03-04T02:22:28;85087.13;;;15.26;62.67
40948;BME280;49382;-25.924;28.194;2023-03-04T02:24:58;85086.01;;;15.56;62.10
40948;BME280;49382;-25.924;28.194;2023-03-04T02:27:19;85084.53;;;16.20;60.56
40948;BME280;49382;-25.924;28.194;2023-03-04T02:29:45;85087.85;;;15.61;61.95
40948;BME280;49382;-25.924;28.194;2023-03-04T02:32:12;85089.29;;;16.13;60.61
40948;BME280;49382;-25.924;28.194;2023-03-04T02:34:43;85088.48;;;15.90;61.23
40948;BME280;49382;-25.924;28.194;2023-03-04T02:37:02;85089.93;;;17.18;58.08
40948;BME280;49382;-25.924;28.194;2023-03-04T02:39:31;85092.08;;;15.33;62.65
40948;BME280;49382;-25.924;28.194;2023-03-04T02:41:54;85094.26;;;15.72;61.88
40948;BME280;49382;-25.924;28.194;2023-03-04T02:44:20;85090.37;;;15.75;61.91
40948;BME280;49382;-25.924;28.194;2023-03-04T02:46:44;85087.47;;;15.92;61.40
40948;BME280;49382;-25.924;28.194;2023-03-04T02:49:10;85089.95;;;14.76;64.16
40948;BME280;49382;-25.924;28.194;2023-03-04T02:51:35;85088.64;;;14.70;64.48
40948;BME280;49382;-25.924;28.194;2023-03-04T02:54:01;85097.11;;;14.84;65.13
40948;BME280;49382;-25.924;28.194;2023-03-04T02:56:26;85094.62;;;15.10;64.73
40948;BME280;49382;-25.924;28.194;2023-03-04T02:58:51;85093.64;;;14.29;67.94
40948;BME280;49382;-25.924;28.194;2023-03-04T03:01:16;85093.87;;;14.94;66.96
40948;BME280;49382;-25.924;28.194;2023-03-04T03:03:42;85095.89;;;14.92;66.89
40948;BME280;49382;-25.924;28.194;2023-03-04T03:06:08;85097.48;;;14.18;69.37
40948;BME280;49382;-25.924;28.194;2023-03-04T03:08:32;85097.05;;;14.84;68.82
40948;BME280;49382;-25.924;28.194;2023-03-04T03:10:57;85094.19;;;14.21;69.64
40948;BME280;49382;-25.924;28.194;2023-03-04T03:13:23;85092.51;;;14.73;69.21
40948;BME280;49382;-25.924;28.194;2023-03-04T03:15:48;85094.70;;;15.60;67.51
40948;BME280;49382;-25.924;28.194;2023-03-04T03:18:14;85093.16;;;17.83;60.11
40948;BME280;49382;-25.924;28.194;2023-03-04T03:20:39;85098.50;;;16.61;62.36
40948;BME280;49382;-25.924;28.194;2023-03-04T03:23:05;85094.42;;;17.70;59.22
40948;BME280;49382;-25.924;28.194;2023-03-04T03:25:30;85098.58;;;15.18;65.85
40948;BME280;49382;-25.924;28.194;2023-03-04T03:27:56;85094.43;;;15.72;64.96
40948;BME280;49382;-25.924;28.194;2023-03-04T03:30:21;85097.51;;;15.06;67.01
40948;BME280;49382;-25.924;28.194;2023-03-04T03:32:47;85098.39;;;15.29;66.02
40948;BME280;49382;-25.924;28.194;2023-03-04T03:35:12;85099.96;;;15.17;68.18
40948;BME280;49382;-25.924;28.194;2023-03-04T03:37:38;85100.37;;;15.35;66.85
40948;BME280;49382;-25.924;28.194;2023-03-04T03:40:04;85102.72;;;14.81;68.04
40948;BME280;49382;-25.924;28.194;2023-03-04T03:42:29;85102.31;;;14.65;68.06
40948;BME280;49382;-25.924;28.194;2023-03-04T03:44:54;85104.10;;;14.86;68.69
40948;BME280;49382;-25.924;28.194;2023-03-04T03:47:19;85103.55;;;15.62;66.36
40948;BME280;49382;-25.924;28.194;2023-03-04T03:49:45;85105.19;;;15.10;66.49
40948;BME280;49382;-25.924;28.194;2023-03-04T03:52:11;85103.29;;;14.52;68.27
40948;BME280;49382;-25.924;28.194;2023-03-04T03:54:36;85099.15;;;13.50;68.84
40948;BME280;49382;-25.924;28.194;2023-03-04T03:57:01;85098.32;;;14.13;68.76
40948;BME280;49382;-25.924;28.194;2023-03-04T03:59:26;85095.77;;;15.69;66.58
40948;BME280;49382;-25.924;28.194;2023-03-04T04:01:51;85095.81;;;16.24;64.68
40948;BME280;49382;-25.924;28.194;2023-03-04T04:04:17;85098.18;;;15.17;66.71
40948;BME280;49382;-25.924;28.194;2023-03-04T04:06:41;85101.28;;;15.64;64.70
40948;BME280;49382;-25.924;28.194;2023-03-04T04:09:07;85100.05;;;14.67;67.31
40948;BME280;49382;-25.924;28.194;2023-03-04T04:11:33;85097.32;;;14.65;68.73
40948;BME280;49382;-25.924;28.194;2023-03-04T04:13:59;85100.08;;;15.44;66.48
40948;BME280;49382;-25.924;28.194;2023-03-04T04:16:24;85100.82;;;14.36;68.17
40948;BME280;49382;-25.924;28.194;2023-03-04T04:18:49;85102.28;;;14.89;67.09
40948;BME280;49382;-25.924;28.194;2023-03-04T04:21:15;85102.44;;;15.53;64.96
40948;BME280;49382;-25.924;28.194;2023-03-04T04:23:40;85100.04;;;15.25;64.45
40948;BME280;49382;-25.924;28.194;2023-03-04T04:26:06;85100.61;;;14.29;68.64
40948;BME280;49382;-25.924;28.194;2023-03-04T04:28:31;85101.42;;;14.61;68.89
40948;BME280;49382;-25.924;28.194;2023-03-04T04:30:56;85110.02;;;14.79;67.52
40948;BME280;49382;-25.924;28.194;2023-03-04T04:33:21;85108.61;;;15.57;65.41
40948;BME280;49382;-25.924;28.194;2023-03-04T04:35:46;85109.43;;;15.00;66.39
40948;BME280;49382;-25.924;28.194;2023-03-04T04:38:12;85112.60;;;14.76;66.66
40948;BME280;49382;-25.924;28.194;2023-03-04T04:40:38;85114.47;;;15.12;65.78
40948;BME280;49382;-25.924;28.194;2023-03-04T04:43:03;85121.95;;;14.79;66.89
40948;BME280;49382;-25.924;28.194;2023-03-04T04:45:29;85126.34;;;15.65;63.96
40948;BME280;49382;-25.924;28.194;2023-03-04T04:47:55;85129.09;;;15.19;66.15
40948;BME280;49382;-25.924;28.194;2023-03-04T04:50:20;85129.82;;;14.83;67.51
40948;BME280;49382;-25.924;28.194;2023-03-04T04:52:45;85133.70;;;14.59;68.73
40948;BME280;49382;-25.924;28.194;2023-03-04T04:55:10;85133.90;;;14.10;70.23
40948;BME280;49382;-25.924;28.194;2023-03-04T04:57:36;85129.07;;;14.85;69.25
40948;BME280;49382;-25.924;28.194;2023-03-04T05:00:01;85128.87;;;14.46;70.47
40948;BME280;49382;-25.924;28.194;2023-03-04T05:02:26;85133.00;;;15.32;67.24
40948;BME280;49382;-25.924;28.194;2023-03-04T05:04:51;85136.81;;;15.10;68.50
40948;BME280;49382;-25.924;28.194;2023-03-04T05:07:17;85136.57;;;15.83;67.35
40948;BME280;49382;-25.924;28.194;2023-03-04T05:09:42;85144.89;;;15.82;67.61
40948;BME280;49382;-25.924;28.194;2023-03-04T05:12:07;85147.16;;;17.32;63.89
40948;BME280;49382;-25.924;28.194;2023-03-04T05:14:33;85149.35;;;16.44;66.32
40948;BME280;49382;-25.924;28.194;2023-03-04T05:16:59;85149.44;;;16.08;68.86
40948;BME280;49382;-25.924;28.194;2023-03-04T05:19:24;85151.30;;;16.46;67.06
40948;BME280;49382;-25.924;28.194;2023-03-04T05:21:49;85152.10;;;17.71;61.60
40948;BME280;49382;-25.924;28.194;2023-03-04T05:24:14;85154.99;;;17.32;62.66
40948;BME280;49382;-25.924;28.194;2023-03-04T05:26:39;85151.56;;;17.00;63.14
40948;BME280;49382;-25.924;28.194;2023-03-04T05:29:04;85152.18;;;17.61;61.89
40948;BME280;49382;-25.924;28.194;2023-03-04T05:31:29;85157.67;;;15.96;67.15
40948;BME280;49382;-25.924;28.194;2023-03-04T05:33:55;85154.54;;;16.06;68.14
40948;BME280;49382;-25.924;28.194;2023-03-04T05:36:20;85155.08;;;16.59;65.96
40948;BME280;49382;-25.924;28.194;2023-03-04T05:38:45;85162.71;;;20.47;55.19
40948;BME280;49382;-25.924;28.194;2023-03-04T05:41:10;85158.21;;;17.22;63.47
40948;BME280;49382;-25.924;28.194;2023-03-04T05:43:36;85164.55;;;19.85;57.20
40948;BME280;49382;-25.924;28.194;2023-03-04T05:46:02;85170.66;;;21.10;54.62
40948;BME280;49382;-25.924;28.194;2023-03-04T05:48:27;85167.78;;;18.50;63.61
40948;BME280;49382;-25.924;28.194;2023-03-04T05:50:55;85168.88;;;18.14;63.03
40948;BME280;49382;-25.924;28.194;2023-03-04T05:53:18;85169.39;;;18.27;65.47
40948;BME280;49382;-25.924;28.194;2023-03-04T05:55:46;85171.08;;;17.87;63.80
40948;BME280;49382;-25.924;28.194;2023-03-04T05:58:09;85165.24;;;18.42;62.84
40948;BME280;49382;-25.924;28.194;2023-03-04T06:00:35;85171.24;;;19.13;61.90
40948;BME280;49382;-25.924;28.194;2023-03-04T06:03:00;85175.79;;;19.36;62.41
40948;BME280;49382;-25.924;28.194;2023-03-04T06:05:26;85170.98;;;19.15;60.86
40948;BME280;49382;-25.924;28.194;2023-03-04T06:07:52;85173.54;;;18.75;64.71
40948;BME280;49382;-25.924;28.194;2023-03-04T06:10:18;85171.13;;;18.84;64.17
40948;BME280;49382;-25.924;28.194;2023-03-04T06:12:44;85173.56;;;19.32;62.59
40948;BME280;49382;-25.924;28.194;2023-03-04T06:15:11;85174.03;;;19.22;61.94
40948;BME280;49382;-25.924;28.194;2023-03-04T06:17:36;85170.50;;;19.32;63.32
40948;BME280;49382;-25.924;28.194;2023-03-04T06:20:01;85170.66;;;19.85;62.20
40948;BME280;49382;-25.924;28.194;2023-03-04T06:22:27;85177.14;;;20.91;59.70
40948;BME280;49382;-25.924;28.194;2023-03-04T06:24:52;85172.98;;;19.44;60.93
40948;BME280;49382;-25.924;28.194;2023-03-04T06:27:18;85173.73;;;20.93;58.79
40948;BME280;49382;-25.924;28.194;2023-03-04T06:29:44;85174.78;;;20.96;56.02
40948;BME280;49382;-25.924;28.194;2023-03-04T06:32:10;85178.94;;;20.29;59.49
40948;BME280;49382;-25.924;28.194;2023-03-04T06:34:36;85182.38;;;22.30;53.95
40948;BME280;49382;-25.924;28.194;2023-03-04T06:37:01;85180.98;;;20.75;55.78
40948;BME280;49382;-25.924;28.194;2023-03-04T06:39:27;85181.23;;;19.83;56.43
40948;BME280;49382;-25.924;28.194;2023-03-04T06:41:53;85183.66;;;20.26;55.51
40948;BME280;49382;-25.924;28.194;2023-03-04T06:44:18;85189.97;;;21.99;53.24
40948;BME280;49382;-25.924;28.194;2023-03-04T06:46:44;85189.74;;;23.96;47.73
40948;BME280;49382;-25.924;28.194;2023-03-04T06:49:10;85192.51;;;21.42;53.45
40948;BME280;49382;-25.924;28.194;2023-03-04T06:51:36;85192.17;;;20.48;52.57
40948;BME280;49382;-25.924;28.194;2023-03-04T06:54:02;85194.73;;;21.41;53.52
40948;BME280;49382;-25.924;28.194;2023-03-04T06:56:27;85195.24;;;20.98;51.63
40948;BME280;49382;-25.924;28.194;2023-03-04T06:58:53;85196.57;;;20.57;55.42
40948;BME280;49382;-25.924;28.194;2023-03-04T07:01:20;85197.71;;;22.14;49.79
40948;BME280;49382;-25.924;28.194;2023-03-04T07:03:45;85196.54;;;21.85;53.19
40948;BME280;49382;-25.924;28.194;2023-03-04T07:06:11;85190.52;;;22.62;51.90
40948;BME280;49382;-25.924;28.194;2023-03-04T07:08:36;85194.98;;;23.74;49.24
40948;BME280;49382;-25.924;28.194;2023-03-04T07:11:02;85190.00;;;23.74;47.75
40948;BME280;49382;-25.924;28.194;2023-03-04T07:13:27;85186.22;;;24.41;45.51
40948;BME280;49382;-25.924;28.194;2023-03-04T07:15:53;85185.72;;;22.82;48.40
40948;BME280;49382;-25.924;28.194;2023-03-04T07:18:19;85186.67;;;23.75;46.20
40948;BME280;49382;-25.924;28.194;2023-03-04T07:20:44;85190.24;;;25.29;43.95
40948;BME280;49382;-25.924;28.194;2023-03-04T07:25:36;85191.19;;;25.18;43.52
40948;BME280;49382;-25.924;28.194;2023-03-04T07:28:02;85193.49;;;26.74;40.92
40948;BME280;49382;-25.924;28.194;2023-03-04T07:30:27;85196.49;;;26.00;42.35
40948;BME280;49382;-25.924;28.194;2023-03-04T07:32:53;85201.06;;;26.94;41.10
40948;BME280;49382;-25.924;28.194;2023-03-04T07:35:18;85198.62;;;25.95;41.52
40948;BME280;49382;-25.924;28.194;2023-03-04T07:37:43;85194.72;;;23.24;44.36
40948;BME280;49382;-25.924;28.194;2023-03-04T07:40:10;85195.35;;;25.53;41.20
40948;BME280;49382;-25.924;28.194;2023-03-04T07:42:33;85196.41;;;24.25;43.69
40948;BME280;49382;-25.924;28.194;2023-03-04T07:44:59;85197.06;;;25.08;43.56
40948;BME280;49382;-25.924;28.194;2023-03-04T07:47:25;85198.90;;;23.85;44.47
40948;BME280;49382;-25.924;28.194;2023-03-04T07:49:50;85199.79;;;22.52;46.29
40948;BME280;49382;-25.924;28.194;2023-03-04T07:52:16;85201.71;;;26.31;39.83
40948;BME280;49382;-25.924;28.194;2023-03-04T07:54:42;85202.38;;;26.45;39.50
40948;BME280;49382;-25.924;28.194;2023-03-04T07:57:08;85197.05;;;25.72;40.33
40948;BME280;49382;-25.924;28.194;2023-03-04T07:59:33;85197.21;;;24.66;42.61
40948;BME280;49382;-25.924;28.194;2023-03-04T08:02:00;85194.86;;;23.42;46.29
40948;BME280;49382;-25.924;28.194;2023-03-04T08:04:25;85193.17;;;24.41;45.13
40948;BME280;49382;-25.924;28.194;2023-03-04T08:06:51;85197.60;;;26.92;40.60
40948;BME280;49382;-25.924;28.194;2023-03-04T08:09:16;85197.39;;;25.93;43.52
40948;BME280;49382;-25.924;28.194;2023-03-04T08:11:41;85196.51;;;25.92;43.00
40948;BME280;49382;-25.924;28.194;2023-03-04T08:14:06;85197.73;;;26.72;41.29
40948;BME280;49382;-25.924;28.194;2023-03-04T08:16:32;85192.53;;;25.13;43.95
40948;BME280;49382;-25.924;28.194;2023-03-04T08:18:59;85193.73;;;23.40;46.38
40948;BME280;49382;-25.924;28.194;2023-03-04T08:21:25;85193.82;;;26.16;41.65
40948;BME280;49382;-25.924;28.194;2023-03-04T08:23:50;85188.26;;;23.94;45.18
40948;BME280;49382;-25.924;28.194;2023-03-04T08:26:18;85196.75;;;26.75;39.98
40948;BME280;49382;-25.924;28.194;2023-03-04T08:28:41;85190.59;;;25.83;41.31
40948;BME280;49382;-25.924;28.194;2023-03-04T08:31:06;85188.54;;;25.46;41.66
40948;BME280;49382;-25.924;28.194;2023-03-04T08:33:33;85189.59;;;27.58;38.97
40948;BME280;49382;-25.924;28.194;2023-03-04T08:35:58;85188.98;;;26.86;39.81
40948;BME280;49382;-25.924;28.194;2023-03-04T08:38:24;85183.57;;;24.32;44.20
40948;BME280;49382;-25.924;28.194;2023-03-04T08:40:52;85183.26;;;26.75;39.77
40948;BME280;49382;-25.924;28.194;2023-03-04T08:43:15;85181.63;;;25.37;41.93
40948;BME280;49382;-25.924;28.194;2023-03-04T08:45:41;85179.81;;;24.10;42.32
40948;BME280;49382;-25.924;28.194;2023-03-04T08:48:07;85181.87;;;24.48;43.04
40948;BME280;49382;-25.924;28.194;2023-03-04T08:50:32;85177.74;;;24.13;42.39
40948;BME280;49382;-25.924;28.194;2023-03-04T08:52:59;85178.41;;;26.65;40.38
40948;BME280;49382;-25.924;28.194;2023-03-04T08:55:24;85181.49;;;25.73;42.19
40948;BME280;49382;-25.924;28.194;2023-03-04T08:57:49;85174.18;;;23.99;43.40
40948;BME280;49382;-25.924;28.194;2023-03-04T09:00:16;85176.15;;;26.20;40.69
40948;BME280;49382;-25.924;28.194;2023-03-04T09:02:41;85169.31;;;24.93;42.09
40948;BME280;49382;-25.924;28.194;2023-03-04T09:05:08;85169.42;;;25.24;43.27
40948;BME280;49382;-25.924;28.194;2023-03-04T09:07:32;85167.50;;;25.24;43.93
40948;BME280;49382;-25.924;28.194;2023-03-04T09:09:58;85161.31;;;25.43;43.45
40948;BME280;49382;-25.924;28.194;2023-03-04T09:12:24;85161.04;;;26.74;37.29
40948;BME280;49382;-25.924;28.194;2023-03-04T09:14:50;85153.10;;;24.69;41.37
40948;BME280;49382;-25.924;28.194;2023-03-04T09:17:15;85154.21;;;26.70;39.71
40948;BME280;49382;-25.924;28.194;2023-03-04T09:19:41;85146.85;;;26.96;39.93
40948;BME280;49382;-25.924;28.194;2023-03-04T09:22:07;85147.92;;;26.12;40.11
40948;BME280;49382;-25.924;28.194;2023-03-04T09:24:32;85142.52;;;26.34;40.36
40948;BME280;49382;-25.924;28.194;2023-03-04T09:26:58;85140.55;;;24.16;44.12
40948;BME280;49382;-25.924;28.194;2023-03-04T09:29:24;85137.66;;;27.44;37.53
40948;BME280;49382;-25.924;28.194;2023-03-04T09:31:50;85141.01;;;27.29;38.12
40948;BME280;49382;-25.924;28.194;2023-03-04T09:34:16;85138.78;;;27.36;38.69
40948;BME280;49382;-25.924;28.194;2023-03-04T09:36:41;85132.11;;;26.73;40.70
40948;BME280;49382;-25.924;28.194;2023-03-04T09:39:07;85127.64;;;26.24;41.97
40948;BME280;49382;-25.924;28.194;2023-03-04T09:41:37;85119.52;;;25.66;40.75
40948;BME280;49382;-25.924;28.194;2023-03-04T09:43:58;85123.45;;;26.83;40.52
40948;BME280;49382;-25.924;28.194;2023-03-04T09:46:31;85119.12;;;27.89;38.85
40948;BME280;49382;-25.924;28.194;2023-03-04T09:48:51;85118.88;;;28.21;37.72
40948;BME280;49382;-25.924;28.194;2023-03-04T09:51:21;85115.28;;;25.47;39.51
40948;BME280;49382;-25.924;28.194;2023-03-04T09:53:48;85113.67;;;25.13;40.46
40948;BME280;49382;-25.924;28.194;2023-03-04T09:56:08;85111.22;;;26.45;39.71
40948;BME280;49382;-25.924;28.194;2023-03-04T09:58:41;85112.33;;;26.42;39.39
40948;BME280;49382;-25.924;28.194;2023-03-04T10:01:06;85111.13;;;27.06;37.27
40948;BME280;49382;-25.924;28.194;2023-03-04T10:03:29;85104.23;;;26.16;36.73
40948;BME280;49382;-25.924;28.194;2023-03-04T10:05:53;85102.72;;;25.71;37.49
40948;BME280;49382;-25.924;28.194;2023-03-04T10:08:29;85103.28;;;27.20;35.90
40948;BME280;49382;-25.924;28.194;2023-03-04T10:10:44;85099.49;;;26.05;38.98
40948;BME280;49382;-25.924;28.194;2023-03-04T10:13:13;85094.46;;;28.44;35.62
40948;BME280;49382;-25.924;28.194;2023-03-04T10:15:37;85090.14;;;28.49;36.14
40948;BME280;49382;-25.924;28.194;2023-03-04T10:18:05;85087.51;;;27.79;37.13
40948;BME280;49382;-25.924;28.194;2023-03-04T10:20:26;85082.54;;;27.47;37.67
40948;BME280;49382;-25.924;28.194;2023-03-04T10:22:52;85076.21;;;27.00;37.45
40948;BME280;49382;-25.924;28.194;2023-03-04T10:25:19;85074.50;;;28.20;36.59
40948;BME280;49382;-25.924;28.194;2023-03-04T10:27:42;85076.47;;;28.62;35.55
40948;BME280;49382;-25.924;28.194;2023-03-04T10:30:17;85069.12;;;27.72;35.99
40948;BME280;49382;-25.924;28.194;2023-03-04T10:32:33;85061.35;;;27.19;37.16
40948;BME280;49382;-25.924;28.194;2023-03-04T10:34:59;85060.28;;;27.37;36.07
40948;BME280;49382;-25.924;28.194;2023-03-04T10:39:50;85056.39;;;26.08;36.31
40948;BME280;49382;-25.924;28.194;2023-03-04T10:42:26;85053.04;;;28.45;33.63
40948;BME280;49382;-25.924;28.194;2023-03-04T10:44:43;85052.36;;;29.12;32.78
40948;BME280;49382;-25.924;28.194;2023-03-04T10:47:10;85049.60;;;28.37;33.81
40948;BME280;49382;-25.924;28.194;2023-03-04T10:49:33;85046.69;;;24.39;38.57
40948;BME280;49382;-25.924;28.194;2023-03-04T10:54:28;85032.14;;;27.41;36.06
40948;BME280;49382;-25.924;28.194;2023-03-04T10:56:58;85035.85;;;28.12;36.62
40948;BME280;49382;-25.924;28.194;2023-03-04T11:01:42;85030.33;;;29.13;34.41
40948;BME280;49382;-25.924;28.194;2023-03-04T11:04:16;85026.35;;;27.67;36.90
40948;BME280;49382;-25.924;28.194;2023-03-04T11:06:39;85022.55;;;26.10;37.91
40948;BME280;49382;-25.924;28.194;2023-03-04T11:08:59;85013.41;;;25.67;37.75
40948;BME280;49382;-25.924;28.194;2023-03-04T11:11:30;85011.18;;;28.28;34.36
40948;BME280;49382;-25.924;28.194;2023-03-04T11:13:54;85015.05;;;28.80;34.31
40948;BME280;49382;-25.924;28.194;2023-03-04T11:16:23;85009.88;;;26.86;36.81
40948;BME280;49382;-25.924;28.194;2023-03-04T11:18:46;85014.96;;;28.61;35.05
40948;BME280;49382;-25.924;28.194;2023-03-04T11:21:14;85013.19;;;26.69;37.15
40948;BME280;49382;-25.924;28.194;2023-03-04T11:23:40;85011.25;;;27.49;36.30
40948;BME280;49382;-25.924;28.194;2023-03-04T11:26:02;85008.22;;;26.53;36.58
40948;BME280;49382;-25.924;28.194;2023-03-04T11:28:28;85007.70;;;25.55;38.11
40948;BME280;49382;-25.924;28.194;2023-03-04T11:30:53;85004.64;;;26.90;36.64
40948;BME280;49382;-25.924;28.194;2023-03-04T11:33:21;85003.31;;;27.97;34.92
40948;BME280;49382;-25.924;28.194;2023-03-04T11:35:51;85000.69;;;28.56;33.68
40948;BME280;49382;-25.924;28.194;2023-03-04T11:38:15;84999.30;;;26.52;35.36
40948;BME280;49382;-25.924;28.194;2023-03-04T11:40:38;84998.42;;;24.72;37.51
40948;BME280;49382;-25.924;28.194;2023-03-04T11:43:03;84994.63;;;25.00;36.90
40948;BME280;49382;-25.924;28.194;2023-03-04T11:45:31;84990.60;;;26.61;35.45
40948;BME280;49382;-25.924;28.194;2023-03-04T11:47:58;84989.70;;;26.10;36.42
40948;BME280;49382;-25.924;28.194;2023-03-04T11:50:24;84986.49;;;27.30;34.99
40948;BME280;49382;-25.924;28.194;2023-03-04T11:52:52;84983.02;;;28.34;32.94
40948;BME280;49382;-25.924;28.194;2023-03-04T11:55:17;84984.68;;;26.06;37.67
40948;BME280;49382;-25.924;28.194;2023-03-04T11:57:36;84985.84;;;27.99;33.63
40948;BME280;49382;-25.924;28.194;2023-03-04T12:02:28;84977.54;;;26.92;33.24
40948;BME280;49382;-25.924;28.194;2023-03-04T12:07:27;84977.71;;;28.40;32.07
40948;BME280;49382;-25.924;28.194;2023-03-04T12:09:45;84978.44;;;28.86;31.81
40948;BME280;49382;-25.924;28.194;2023-03-04T12:14:37;84970.90;;;29.25;31.07
40948;BME280;49382;-25.924;28.194;2023-03-04T12:17:10;84965.68;;;28.66;32.14
40948;BME280;49382;-25.924;28.194;2023-03-04T12:19:31;84966.72;;;29.02;31.78
40948;BME280;49382;-25.924;28.194;2023-03-04T12:21:58;84964.10;;;29.09;31.18
40948;BME280;49382;-25.924;28.194;2023-03-04T12:26:43;84964.25;;;28.76;31.52
40948;BME280;49382;-25.924;28.194;2023-03-04T12:29:12;84963.86;;;29.18;31.37
40948;BME280;49382;-25.924;28.194;2023-03-04T12:31:38;84960.92;;;27.49;32.97
40948;BME280;49382;-25.924;28.194;2023-03-04T12:34:12;84958.54;;;28.63;32.61
40948;BME280;49382;-25.924;28.194;2023-03-04T12:36:29;84962.46;;;25.76;34.77
40948;BME280;49382;-25.924;28.194;2023-03-04T12:38:58;84955.00;;;28.49;31.75
40948;BME280;49382;-25.924;28.194;2023-03-04T12:41:26;84947.85;;;27.80;32.21
40948;BME280;49382;-25.924;28.194;2023-03-04T12:43:47;84945.86;;;27.05;32.16
40948;BME280;49382;-25.924;28.194;2023-03-04T12:46:15;84944.91;;;28.12;31.24
40948;BME280;49382;-25.924;28.194;2023-03-04T12:48:35;84944.23;;;28.10;31.13
40948;BME280;49382;-25.924;28.194;2023-03-04T12:51:10;84941.82;;;27.07;31.30